Date,TemperatureHighF,TemperatureAvgF,TemperatureLowF,DewpointHighF,DewpointAvgF,DewpointLowF,HumidityHigh,HumidityAvg,HumidityLow,PressureMaxIn,PressureMinIn,WindSpeedMaxMPH,WindSpeedAvgMPH,GustSpeedMaxMPH,PrecipitationSumIn
2014-1-1,54.9,38.8,24.7,23.0,17.4,14.0,68,44,21,30.36,30.16,11,3,17,0.00
2014-1-2,51.7,35.0,22.1,24.3,16.8,11.7,82,50,21,30.44,30.30,5,1,8,0.00
2014-1-3,50.7,35.0,19.9,18.8,15.9,11.4,75,47,26,30.32,30.00,4,1,6,0.00
2014-1-4,59.7,38.5,24.3,23.4,14.6,-0.4,66,41,17,30.09,29.72,14,4,21,0.00
2014-1-5,38.3,25.4,12.9,6.3,-0.5,-5.9,59,35,17,30.51,30.09,9,2,14,0.00
2014-1-6,44.6,26.7,12.3,3.9,1.1,-2.4,57,35,16,30.66,30.49,7,2,9,0.00
2014-1-7,42.9,30.9,17.9,7.4,3.8,0.1,47,32,21,30.49,30.20,5,1,7,0.00
2014-1-8,49.9,33.2,21.4,14.3,9.6,3.0,54,38,23,30.26,30.13,4,1,9,0.00
2014-1-9,49.2,33.5,21.2,18.1,13.9,9.7,64,45,29,30.19,30.00,4,1,6,0.00
2014-1-10,54.6,39.5,24.6,21.2,15.8,11.6,63,40,21,30.17,29.89,12,3,20,0.00
2014-1-11,57.4,41.4,28.1,24.4,19.9,14.0,56,43,27,30.28,30.02,7,2,10,0.00
2014-1-12,57.7,39.1,27.5,22.5,15.3,2.5,66,41,20,30.23,29.85,12,4,17,0.00
2014-1-13,49.1,35.8,21.3,15.1,11.1,6.4,54,37,23,30.43,30.22,12,3,13,0.00
2014-1-14,54.6,38.9,25.6,19.0,14.9,12.3,58,39,19,30.46,30.29,8,3,12,0.00
2014-1-15,58.9,39.2,22.8,19.8,14.8,11.3,63,39,20,30.48,30.24,7,1,11,0.00
2014-1-16,59.0,44.0,33.5,16.8,13.0,8.1,42,29,18,30.28,30.14,6,2,9,0.00
2014-1-17,55.9,38.8,27.1,18.0,13.7,8.3,56,37,20,30.36,30.19,4,2,6,0.00
2014-1-18,58.5,39.3,25.1,16.4,12.3,9.5,52,34,18,30.36,30.23,4,1,6,0.00
2014-1-19,59.9,40.1,23.3,18.5,13.9,9.0,56,36,19,30.40,30.18,5,2,6,0.00
2014-1-20,60.7,44.2,28.6,19.2,13.7,9.5,49,31,14,30.44,30.17,7,2,9,0.00
2014-1-21,56.8,39.0,27.4,18.1,13.6,10.0,52,37,21,30.50,30.26,4,1,7,0.00
2014-1-22,47.9,34.6,24.0,14.4,10.9,8.0,52,38,25,30.28,30.00,2,1,4,0.00
2014-1-23,36.7,28.1,17.3,19.1,14.2,8.7,73,56,45,30.70,30.08,8,2,11,0.00
2014-1-24,41.0,27.0,12.1,17.4,12.9,7.0,81,58,38,30.78,30.58,5,1,8,0.00
2014-1-25,51.8,36.1,23.6,17.4,12.1,2.0,63,39,20,30.58,30.18,4,1,4,0.00
2014-1-26,61.1,44.0,27.6,19.1,8.7,1.1,38,25,12,30.18,29.91,6,2,8,0.00
2014-1-27,51.0,38.1,29.1,22.7,16.9,11.7,59,43,28,30.09,29.90,3,1,5,0.00
2014-1-28,52.9,34.8,22.2,13.8,7.5,-2.9,56,35,14,30.26,30.00,5,2,8,0.00
2014-1-29,57.9,38.1,23.8,11.3,7.2,3.7,43,29,15,30.27,29.98,5,2,8,0.00
2014-1-30,67.5,47.9,28.0,32.2,19.9,4.6,48,33,24,29.98,29.67,11,3,16,0.00
2014-1-31,58.8,46.4,33.7,30.8,27.0,20.8,69,48,33,29.70,29.53,14,4,19,0.00
2014-2-1,50.5,39.6,33.0,26.8,20.5,15.5,71,48,28,29.99,29.67,6,2,11,0.00
2014-2-2,47.6,35.4,24.1,20.3,17.1,12.6,76,49,28,30.14,29.99,4,1,7,0.00
2014-2-3,45.6,33.3,29.0,31.0,23.5,14.7,94,69,39,30.01,29.75,5,1,7,0.00
2014-2-4,37.6,30.3,27.4,30.1,24.4,20.2,93,79,50,30.15,29.80,5,0,6,0.14
2014-2-5,30.2,24.4,18.8,24.1,20.0,14.5,90,83,76,30.28,30.15,3,1,6,0.00
2014-2-6,28.2,20.8,16.7,25.4,16.6,11.7,90,84,79,30.38,30.19,3,0,4,0.00
2014-2-7,42.2,31.3,25.0,25.8,24.1,20.6,89,76,51,30.19,30.11,3,1,5,0.07
2014-2-8,60.9,43.7,24.4,31.7,28.1,20.9,87,57,30,30.27,30.12,4,1,8,0.00
2014-2-9,66.1,50.7,31.6,36.2,31.4,25.5,78,50,30,30.17,29.88,6,2,9,0.00
2014-2-10,61.9,45.3,34.4,33.2,29.8,25.4,78,57,26,29.96,29.77,8,2,10,0.00
2014-2-11,55.3,42.8,30.2,29.6,22.8,11.7,81,48,26,30.12,29.92,4,1,7,0.00
2014-2-12,59.0,45.1,33.0,21.4,18.7,17.1,55,36,20,30.25,30.02,4,2,8,0.00
2014-2-13,67.5,51.3,39.6,26.2,23.9,20.8,47,35,21,30.10,29.87,8,2,8,0.00
2014-2-14,67.8,52.2,42.6,30.0,25.8,21.4,47,36,23,30.01,29.89,7,2,9,0.00
2014-2-15,71.0,52.8,38.4,29.3,24.0,16.1,60,35,16,30.05,29.92,5,2,7,0.00
2014-2-16,71.4,53.9,37.9,23.9,19.1,14.7,40,27,13,30.00,29.81,10,2,14,0.00
2014-2-17,66.1,52.2,36.1,21.1,12.9,6.9,41,23,11,30.14,29.95,5,2,7,0.00
2014-2-18,69.6,50.8,35.2,24.8,16.8,10.7,45,27,14,30.06,29.87,5,1,8,0.00
2014-2-19,68.5,52.6,39.4,22.6,17.9,9.8,42,27,14,29.90,29.47,14,5,18,0.00
2014-2-20,47.2,36.5,30.2,21.1,3.8,-6.4,45,27,11,30.19,29.68,10,4,15,0.00
2014-2-21,59.8,39.5,22.8,13.8,7.5,-2.4,37,27,16,30.23,29.98,6,1,8,0.00
2014-2-22,64.0,48.8,26.6,18.7,15.4,9.9,49,28,16,30.02,29.84,7,3,10,0.00
2014-2-23,66.5,50.4,29.2,20.5,15.9,7.4,52,27,15,30.08,29.94,5,2,10,0.00
2014-2-24,69.6,49.9,29.8,19.9,14.3,9.6,43,25,14,30.11,29.91,3,2,5,0.00
2014-2-25,62.2,45.0,35.5,21.7,17.7,12.8,42,34,21,30.02,29.82,4,1,8,0.00
2014-2-26,65.2,48.0,27.7,25.6,19.7,14.9,72,36,16,30.04,29.83,4,2,8,0.00
2014-2-27,67.3,48.1,36.9,34.6,24.1,15.9,73,41,20,29.93,29.54,12,4,21,0.00
2014-2-28,61.9,46.9,32.9,29.7,25.5,20.5,61,44,24,29.92,29.75,5,2,8,0.00
2014-3-1,60.3,47.2,35.9,44.4,33.4,23.8,87,60,38,29.90,29.74,14,4,21,0.08
2014-3-2,57.0,46.0,33.4,39.2,33.2,25.3,91,64,33,30.11,29.83,9,4,13,0.03
2014-3-3,61.0,41.3,30.6,32.0,27.3,24.3,83,61,28,30.17,30.00,3,1,4,0.00
2014-3-4,57.0,47.5,31.4,39.9,31.5,23.9,88,57,35,30.04,29.82,6,2,8,0.04
2014-3-5,64.1,48.1,36.9,36.1,27.8,16.7,90,51,17,30.15,29.93,6,3,12,0.00
2014-3-6,65.4,48.7,30.4,27.9,22.8,17.7,69,39,18,30.19,29.86,5,2,6,0.00
2014-3-7,62.3,49.9,37.2,33.0,25.0,18.1,59,39,28,29.88,29.68,10,3,11,0.00
2014-3-8,55.4,41.8,33.3,30.3,27.2,24.3,72,57,31,30.37,29.88,6,1,9,0.00
2014-3-9,65.9,44.8,28.0,26.9,18.8,4.4,77,43,14,30.43,30.17,3,1,5,0.00
2014-3-10,74.0,51.6,29.8,20.4,14.7,4.7,51,26,7,30.19,29.81,5,2,9,0.00
2014-3-11,60.7,49.5,35.5,22.4,14.3,4.2,45,25,15,30.03,29.75,10,4,13,0.00
2014-3-12,56.0,42.1,27.2,18.3,15.1,4.4,58,35,21,30.34,30.04,7,2,10,0.00
2014-3-13,61.8,46.0,29.3,36.1,21.3,11.4,63,40,22,30.26,29.89,11,2,12,0.00
2014-3-14,61.7,45.1,35.4,42.7,35.7,29.5,93,72,37,30.04,29.91,8,1,8,0.52
2014-3-15,55.5,43.8,33.8,37.8,30.2,20.6,95,63,31,30.19,29.86,14,4,18,0.01
2014-3-16,62.4,45.1,29.2,23.6,16.0,11.4,69,34,16,30.35,30.10,5,2,8,0.00
2014-3-17,74.9,52.6,35.0,24.0,17.1,8.7,54,29,8,30.10,29.44,12,5,19,0.00
2014-3-18,54.8,44.8,34.1,16.6,6.9,0.6,32,22,11,29.99,29.46,14,6,17,0.00
2014-3-19,61.8,43.4,26.6,17.8,10.4,2.1,59,30,11,30.27,29.99,5,1,7,0.00
2014-3-20,70.5,49.2,27.4,17.1,8.4,1.9,38,21,9,30.23,29.86,7,2,9,0.00
2014-3-21,72.3,56.9,38.4,19.1,12.1,4.5,33,18,7,29.89,29.68,7,3,12,0.00
2014-3-22,66.0,52.4,35.5,23.7,20.2,15.9,52,30,15,29.98,29.79,7,3,10,0.00
2014-3-23,64.5,50.3,37.8,27.6,24.5,19.9,57,38,23,30.18,29.94,5,2,8,0.00
2014-3-24,69.9,53.6,34.4,19.8,9.6,2.2,41,20,7,30.11,29.95,10,3,16,0.00
2014-3-25,70.1,51.9,33.4,37.7,21.4,5.8,58,33,14,30.11,29.79,10,3,13,0.00
2014-3-26,66.8,54.2,39.2,39.9,30.0,17.6,84,47,16,29.82,29.43,14,5,20,0.00
2014-3-27,63.0,51.0,39.7,31.3,24.7,17.5,69,39,20,29.82,29.59,9,5,14,0.00
2014-3-28,63.4,51.2,36.6,24.8,20.2,14.1,55,31,17,30.11,29.82,9,4,18,0.00
2014-3-29,68.9,53.4,35.6,28.2,19.2,13.2,46,28,16,30.22,29.92,6,2,10,0.00
2014-3-30,74.2,55.9,37.8,24.7,17.0,5.8,44,24,10,29.94,29.61,12,4,18,0.00
2014-3-31,69.2,52.4,38.0,20.8,14.6,8.4,40,23,10,29.92,29.75,7,3,12,0.00
2014-4-1,74.7,56.4,38.4,17.7,12.9,9.0,31,19,9,29.85,29.58,12,4,21,0.00
2014-4-2,71.2,55.8,42.2,19.3,10.6,1.5,28,17,12,29.66,29.42,12,5,18,0.00
2014-4-3,55.9,43.5,33.4,22.3,16.9,10.2,57,36,18,30.10,29.63,10,4,15,0.00
2014-4-4,63.3,46.2,27.9,23.9,18.3,13.1,70,38,14,30.16,29.83,7,2,9,0.00
2014-4-5,63.6,49.7,39.9,32.6,22.1,15.2,62,35,17,29.84,29.65,14,3,18,0.00
2014-4-6,62.4,52.2,35.2,30.0,21.9,10.0,72,34,15,29.91,29.75,10,5,18,0.00
2014-4-7,66.1,51.5,35.4,31.6,20.9,13.6,76,35,13,30.14,29.91,10,5,17,0.00
2014-4-8,77.0,56.5,37.2,26.5,19.2,12.4,44,26,11,30.24,30.03,7,2,12,0.00
2014-4-9,82.3,63.6,39.5,23.9,16.5,11.5,36,18,8,30.11,29.79,5,2,9,0.00
2014-4-10,81.5,63.8,42.2,16.7,10.1,3.1,29,14,6,29.91,29.72,8,3,12,0.00
2014-4-11,80.4,62.0,43.1,18.8,9.5,3.8,24,13,6,29.92,29.72,10,3,18,0.00
2014-4-12,75.8,61.2,46.3,31.6,20.9,8.7,30,21,15,29.76,29.45,13,2,17,0.00
2014-4-13,75.7,55.8,40.4,38.3,24.0,15.1,81,35,13,29.75,29.37,16,4,19,0.00
2014-4-14,56.2,45.6,35.5,34.8,20.1,4.9,76,38,20,30.19,29.75,7,2,11,0.00
2014-4-15,69.1,50.3,31.6,20.3,14.0,4.5,48,26,10,30.20,29.81,6,2,9,0.00
2014-4-16,74.4,55.5,34.7,26.6,15.3,9.9,39,23,9,29.82,29.61,10,2,13,0.00
2014-4-17,71.9,56.3,40.1,33.8,27.8,24.0,64,36,19,29.97,29.80,5,2,10,0.00
2014-4-18,78.7,60.4,41.9,38.9,29.3,23.1,56,34,13,30.01,29.76,12,4,17,0.00
2014-4-19,63.7,55.2,45.2,46.9,41.7,34.7,84,61,47,29.93,29.82,9,2,10,0.00
2014-4-20,76.8,59.8,42.4,48.1,38.1,24.9,96,53,18,29.99,29.83,7,2,14,0.01
2014-4-21,79.8,65.1,47.0,41.0,33.9,28.7,65,34,16,30.01,29.84,5,2,10,0.00
2014-4-22,81.6,67.8,52.8,43.7,36.4,29.2,60,35,17,29.91,29.53,10,4,16,0.00
2014-4-23,75.4,63.0,51.7,30.7,24.2,13.7,38,24,12,29.71,29.43,12,5,16,0.00
2014-4-24,75.0,56.8,41.2,17.7,12.5,5.1,31,19,8,29.97,29.71,5,2,8,0.00
2014-4-25,79.3,62.6,38.1,22.9,14.9,6.3,30,16,11,29.90,29.57,8,2,13,0.00
2014-4-26,72.5,56.8,36.0,35.4,21.1,11.8,76,30,14,29.60,29.24,17,7,25,0.04
2014-4-27,59.6,48.0,32.4,31.4,23.8,15.2,83,42,19,29.77,29.52,15,6,19,0.00
2014-4-28,62.0,49.9,39.7,34.1,19.5,1.9,58,33,12,29.98,29.76,14,7,25,0.00
2014-4-29,63.4,48.4,32.3,14.8,10.3,4.1,43,23,11,30.11,29.98,7,3,9,0.00
2014-4-30,65.8,51.3,39.1,25.7,21.0,13.3,50,32,19,30.17,30.00,7,2,12,0.00
2014-5-1,66.8,53.0,42.3,27.0,22.4,18.7,45,31,18,30.16,29.94,7,2,9,0.00
2014-5-2,77.0,57.2,36.7,29.2,23.2,15.3,60,32,12,30.14,29.89,6,2,8,0.00
2014-5-3,85.0,69.1,45.4,26.0,21.4,17.6,34,18,10,29.99,29.75,6,2,10,0.00
2014-5-4,86.5,68.8,46.6,25.8,17.2,12.6,30,16,7,29.89,29.66,8,3,15,0.00
2014-5-5,84.2,68.5,49.5,23.0,16.9,13.0,26,15,8,29.84,29.55,8,2,17,0.00
2014-5-6,81.3,65.9,47.8,22.4,14.6,3.6,28,15,6,29.63,29.38,10,4,16,0.00
2014-5-7,60.9,56.2,47.6,16.1,8.8,4.3,28,15,11,29.68,29.48,5,2,10,0.00
2014-5-8,62.9,51.2,37.6,42.4,25.4,15.7,82,38,24,29.97,29.68,11,3,17,0.02
2014-5-9,76.6,57.8,36.9,30.0,23.8,20.0,54,31,13,30.01,29.73,7,3,14,0.00
2014-5-10,81.3,64.7,44.3,31.3,26.6,22.9,44,25,13,29.79,29.40,8,3,16,0.00
2014-5-11,79.0,63.9,48.2,31.3,24.1,15.9,35,23,12,29.65,29.25,13,6,24,0.00
2014-5-12,64.0,50.4,39.6,34.8,28.9,21.5,70,45,24,30.12,29.64,7,3,13,0.00
2014-5-13,57.5,45.1,34.7,32.2,27.5,23.8,82,53,29,30.41,30.13,7,2,15,0.00
2014-5-14,66.4,51.7,33.0,28.1,20.9,12.7,70,35,16,30.47,30.19,4,2,9,0.00
2014-5-15,77.6,59.4,36.5,23.4,18.2,11.1,37,22,11,30.26,29.98,8,3,13,0.00
2014-5-16,85.9,67.4,45.8,27.2,22.7,18.2,36,20,10,30.02,29.70,8,2,12,0.00
2014-5-17,88.3,71.4,55.6,37.8,28.6,18.8,45,22,10,29.80,29.57,6,2,10,0.00
2014-5-18,88.9,72.1,53.0,36.0,16.0,1.7,39,15,4,29.72,29.53,8,3,14,0.00
2014-5-19,88.6,72.8,54.5,19.0,8.3,-3.3,19,9,3,29.68,29.52,10,4,18,0.00
2014-5-20,87.2,70.0,51.3,17.6,11.6,3.5,20,12,5,29.78,29.59,9,3,13,0.00
2014-5-21,85.6,71.3,54.1,27.9,21.6,13.3,25,16,9,29.80,29.62,10,3,18,0.00
2014-5-22,81.7,68.2,54.4,48.4,33.8,22.3,64,31,14,29.85,29.67,9,3,17,0.03
2014-5-23,75.8,59.7,51.5,53.4,48.3,42.2,87,68,31,29.92,29.69,11,3,16,0.32
2014-5-24,69.0,57.4,49.4,48.3,44.6,39.8,82,64,41,29.90,29.80,11,3,16,0.02
2014-5-25,68.8,53.5,41.2,48.5,41.7,35.8,94,68,31,29.95,29.85,9,1,10,0.11
2014-5-26,78.4,60.4,42.4,48.4,41.7,34.3,95,56,22,30.00,29.87,5,2,7,0.01
2014-5-27,89.7,71.9,49.7,45.4,38.7,30.9,61,34,14,29.98,29.74,5,2,9,0.00
2014-5-28,92.9,77.3,59.1,47.1,41.2,28.5,57,32,12,29.83,29.61,8,3,14,0.00
2014-5-29,86.1,74.4,61.0,49.0,45.4,40.8,57,37,23,29.78,29.61,14,3,18,0.00
2014-5-30,90.0,74.2,61.7,51.3,44.6,34.8,68,39,18,29.82,29.63,5,2,7,0.00
2014-5-31,92.2,77.9,62.2,46.5,39.8,32.8,45,27,16,29.76,29.53,6,2,9,0.00
2014-6-1,93.7,79.6,60.7,38.7,27.3,16.3,31,16,7,29.66,29.50,9,3,14,0.00
2014-6-2,93.6,76.9,57.1,28.2,22.7,19.0,25,14,7,29.76,29.60,5,1,10,0.00
2014-6-3,98.2,80.5,61.4,46.4,33.5,23.7,49,22,9,29.69,29.47,6,2,8,0.00
2014-6-4,98.1,81.4,60.2,29.1,19.5,5.7,23,12,4,29.64,29.42,9,3,18,0.00
2014-6-5,97.1,79.8,57.3,47.9,19.5,5.1,32,12,5,29.61,29.43,7,2,15,0.00
2014-6-6,95.9,79.7,60.5,54.2,27.2,-4.7,49,21,3,29.56,29.36,6,2,11,0.00
2014-6-7,90.5,74.6,61.3,55.6,45.8,4.5,71,39,8,29.63,29.44,13,4,18,0.00
2014-6-8,90.0,74.5,58.2,50.4,38.6,22.3,63,33,10,29.69,29.45,8,3,14,0.00
2014-6-9,87.0,72.2,55.2,34.6,21.7,0.2,38,18,5,29.78,29.62,8,4,11,0.00
2014-6-10,92.7,73.9,52.4,36.1,28.1,14.7,48,22,8,29.81,29.58,6,2,10,0.00
2014-6-11,90.3,78.6,62.5,39.5,32.3,24.8,29,19,13,29.66,29.49,14,4,20,0.00
2014-6-12,72.5,68.1,62.2,31.1,29.6,28.1,28,24,21,29.65,29.60,4,3,6,0.00
2014-6-17,90.5,76.7,62.2,49.8,36.6,30.1,47,24,14,29.67,29.52,13,5,19,0.01
2014-6-18,86.8,74.5,61.0,43.7,38.9,33.4,44,29,15,29.68,29.57,10,4,17,0.00
2014-6-19,91.3,76.7,53.7,35.8,28.9,18.7,41,19,9,29.82,29.66,5,2,11,0.00
2014-6-20,94.7,78.4,61.0,48.4,36.9,18.3,40,24,11,29.82,29.59,5,2,10,0.00
2014-6-21,95.9,80.3,61.6,52.2,40.2,29.2,63,29,11,29.69,29.49,12,2,12,0.00
2014-6-22,96.0,79.9,60.1,48.9,33.3,16.4,58,24,7,29.67,29.48,8,3,12,0.00
2014-6-23,94.5,78.7,61.9,47.4,34.0,18.3,45,22,8,29.72,29.57,6,3,12,0.00
2014-6-24,95.2,79.4,61.7,50.0,34.4,19.4,62,26,7,29.77,29.58,6,2,12,0.00
2014-6-25,93.9,78.7,61.7,53.6,35.4,19.4,62,25,10,29.73,29.53,5,2,8,0.00
2014-6-26,97.4,81.1,59.5,48.6,31.5,17.8,65,21,7,29.67,29.41,8,3,13,0.00
2014-6-27,91.5,80.3,70.4,40.5,33.9,24.1,27,19,13,29.51,29.33,8,3,11,0.00
2014-6-28,95.5,80.6,64.1,39.5,33.2,26.6,34,19,9,29.62,29.45,7,3,11,0.00
2014-6-29,101.5,84.0,61.6,40.4,33.5,26.6,29,17,10,29.73,29.50,5,2,8,0.00
2014-6-30,103.0,86.6,66.6,40.5,35.6,29.5,32,17,10,29.62,29.40,6,2,10,0.00
2014-7-1,93.0,80.8,70.4,56.1,46.4,33.6,46,31,20,29.69,29.48,11,4,14,0.00
2014-7-2,89.1,76.6,62.4,59.0,51.1,46.7,68,43,25,29.85,29.68,8,3,11,0.01
2014-7-3,93.4,74.3,59.4,58.4,53.9,39.9,91,55,16,29.98,29.69,12,3,16,0.63
2014-7-4,86.1,73.2,58.7,58.4,54.5,48.7,89,56,30,29.96,29.80,11,2,13,0.00
2014-7-5,94.0,77.4,65.2,60.5,54.4,50.2,75,48,24,29.92,29.72,8,2,10,0.05
2014-7-6,94.1,77.4,63.2,59.7,55.4,47.6,80,51,22,29.85,29.65,6,1,8,0.00
2014-7-7,94.5,80.0,63.0,57.9,52.1,44.6,73,42,19,29.78,29.58,4,1,8,0.00
2014-7-8,93.7,77.7,65.3,55.9,51.6,47.7,65,42,24,29.87,29.65,11,4,14,0.00
2014-7-9,92.1,77.1,62.2,56.8,53.6,47.4,77,48,23,29.87,29.67,8,3,14,0.00
2014-7-10,96.2,77.1,65.3,60.5,54.5,49.8,68,48,22,29.79,29.59,8,2,10,0.00
2014-7-11,97.5,78.3,66.6,60.0,55.0,50.6,74,48,23,29.83,29.60,6,2,9,0.00
2014-7-12,95.3,77.7,61.7,59.8,56.4,49.9,84,52,26,29.84,29.69,6,2,7,0.01
2014-7-13,90.1,77.5,65.6,58.1,55.9,51.4,76,49,32,29.87,29.73,6,2,10,0.00
2014-7-14,96.9,77.9,63.7,57.9,55.1,50.0,74,49,22,29.91,29.71,13,2,17,0.00
2014-7-15,83.6,70.3,60.1,62.4,59.0,54.8,93,71,40,29.95,29.72,4,2,8,0.47
2014-7-16,88.4,70.9,61.0,62.5,58.4,53.0,89,67,36,29.85,29.59,8,2,13,0.41
2014-7-17,92.0,74.7,61.6,61.6,56.7,42.1,93,60,19,29.75,29.62,6,2,11,0.00
2014-7-18,96.7,78.3,62.2,60.9,54.0,40.7,87,50,15,29.76,29.58,5,2,12,0.00
2014-7-19,97.9,81.0,67.0,59.3,53.6,43.4,73,43,18,29.73,29.60,7,2,11,0.00
2014-7-20,99.0,84.3,64.9,57.4,51.5,45.3,65,35,17,29.76,29.60,11,2,14,0.00
2014-7-21,99.5,83.6,67.6,57.5,50.6,41.8,65,35,15,29.79,29.66,4,2,7,0.00
2014-7-22,101.5,82.1,71.0,59.9,53.1,46.0,65,39,16,29.89,29.71,10,2,13,0.03
2014-7-23,91.8,78.3,65.5,59.3,55.6,51.0,62,47,29,29.93,29.82,7,2,8,0.00
2014-7-24,93.7,80.2,64.7,55.4,49.6,40.0,63,38,16,29.92,29.70,5,2,12,0.00
2014-7-25,99.2,83.7,64.9,51.9,46.8,43.6,51,29,17,29.79,29.57,6,2,10,0.00
2014-7-26,105.5,85.4,68.6,52.0,48.6,45.4,49,30,14,29.73,29.55,10,1,12,0.00
2014-7-27,94.5,77.8,66.8,61.9,54.6,48.3,81,47,25,29.90,29.67,8,3,9,0.09
2014-7-28,87.6,75.2,64.8,60.1,56.6,51.3,77,55,30,30.01,29.86,7,3,10,0.00
2014-7-29,84.4,72.2,63.3,62.8,60.0,54.5,88,67,41,29.93,29.75,8,2,9,0.04
2014-7-30,94.0,77.6,62.6,61.9,58.2,51.7,89,57,24,29.87,29.68,7,2,13,0.00
2014-7-31,83.7,70.7,61.6,61.4,58.3,50.2,85,66,41,29.92,29.74,11,2,13,0.08
2014-8-1,86.0,70.6,58.7,62.3,56.5,53.1,86,64,35,29.96,29.81,7,2,10,0.00
2014-8-2,79.7,69.8,60.8,59.4,55.0,47.6,87,62,33,29.97,29.88,7,3,11,0.01
2014-8-3,82.1,71.6,58.9,59.0,53.9,50.5,78,55,39,29.99,29.84,5,2,10,0.00
2014-8-4,84.1,73.4,63.2,60.4,58.1,55.5,80,60,41,29.90,29.76,7,2,12,0.00
2014-8-5,90.0,73.8,59.0,59.6,55.4,49.8,87,56,27,29.92,29.76,6,2,9,0.00
2014-8-6,93.8,77.7,59.7,58.9,50.2,41.7,82,44,18,29.84,29.67,5,1,7,0.00
2014-8-7,78.5,69.8,59.3,57.3,51.2,43.5,76,53,36,29.83,29.72,8,2,12,0.00
2014-8-8,89.0,70.6,53.6,56.8,50.8,42.8,89,55,25,29.90,29.73,6,1,9,0.00
2014-8-9,90.1,59.5,59.5,80.2,44.8,45.6,76,49,27,29.85,29.76,5,1,10,0.33
2014-8-10,88.6,71.1,59.0,58.9,52.4,49.4,86,55,29,29.98,29.81,9,2,13,0.40
2014-8-11,89.3,73.2,60.1,57.6,54.3,46.5,83,55,28,30.03,29.88,7,2,10,0.00
2014-8-12,90.9,76.9,61.6,58.9,54.7,49.8,79,49,25,29.99,29.76,6,2,8,0.00
2014-8-13,85.7,72.4,64.6,62.1,58.2,55.3,78,62,40,29.88,29.80,8,2,11,0.00
2014-8-14,88.1,73.9,62.6,61.3,58.1,53.6,89,61,35,29.89,29.72,6,2,9,0.00
2014-8-15,69.5,66.7,64.6,58.3,57.8,56.8,79,73,64,29.81,29.79,2,0,4,0.00
2014-8-17,72.2,70.6,69.1,50.7,49.6,48.4,52,48,43,29.75,29.74,1,0,2,0.03
2014-8-18,93.1,78.0,61.6,54.7,50.1,46.0,72,41,22,29.79,29.60,5,1,8,0.00
2014-8-19,91.3,76.7,62.5,53.3,48.9,38.8,61,40,16,29.67,29.50,8,2,12,0.00
2014-8-20,89.7,75.1,64.7,56.0,50.3,43.5,72,46,23,29.70,29.61,6,2,9,0.00
2014-8-21,89.5,76.6,60.3,47.2,42.8,33.7,52,32,15,29.79,29.65,4,1,8,0.00
2014-8-22,73.8,64.5,57.2,60.6,53.2,41.1,92,70,32,29.87,29.71,7,1,10,0.57
2014-8-23,83.8,68.6,53.3,60.2,53.8,45.8,96,65,27,29.94,29.74,5,2,8,0.01
2014-8-24,89.6,74.4,57.5,55.6,50.0,43.5,76,47,22,29.81,29.65,4,1,8,0.00
2014-8-25,90.4,75.7,60.2,53.9,49.8,45.5,66,43,24,29.80,29.65,6,2,9,0.00
2014-8-26,81.6,69.1,60.0,59.1,54.6,50.7,82,61,41,29.93,29.77,9,2,10,0.02
2014-8-27,81.9,68.0,57.0,58.7,55.3,46.4,93,67,37,29.99,29.85,8,1,8,0.33
2014-8-28,83.6,70.4,54.2,49.8,45.7,41.4,76,44,24,29.92,29.75,8,3,12,0.00
2014-8-29,88.1,73.9,57.6,49.3,45.3,39.8,63,38,22,29.84,29.70,3,1,6,0.00
2014-8-30,92.4,74.9,58.6,50.2,44.6,40.1,58,37,17,29.84,29.62,5,2,9,0.00
2014-8-31,93.7,77.9,59.6,47.6,42.3,38.2,55,31,16,29.74,29.54,7,3,13,0.00
2014-9-1,93.4,78.4,61.6,45.6,41.4,37.0,48,28,16,29.71,29.57,6,2,11,0.00
2014-9-2,96.7,78.3,57.0,42.1,37.5,33.8,49,25,12,29.77,29.58,4,1,8,0.00
2014-9-3,94.6,78.2,57.3,43.5,38.9,33.7,48,26,12,29.70,29.53,5,1,8,0.00
2014-9-4,92.7,75.2,59.2,58.3,46.4,34.9,79,40,15,29.74,29.53,13,2,14,0.02
2014-9-5,88.8,71.2,57.6,57.3,54.8,49.1,85,60,29,29.91,29.73,7,2,9,0.00
2014-9-6,83.0,70.2,60.9,56.4,54.1,51.8,80,59,38,29.98,29.84,7,3,10,0.00
2014-9-7,85.6,71.4,55.4,56.6,51.3,42.7,86,53,25,29.97,29.76,5,2,9,0.00
2014-9-8,84.7,71.2,58.0,62.2,57.6,54.8,91,65,38,29.84,29.65,5,2,10,0.00
2014-9-9,89.1,75.1,65.6,62.1,55.5,45.7,87,55,23,29.73,29.55,8,3,11,0.00
2014-9-10,83.3,71.8,60.9,55.2,46.9,35.3,73,44,24,29.79,29.67,6,3,9,0.00
2014-9-11,88.0,72.8,58.7,55.4,46.7,36.5,69,43,20,29.85,29.67,6,2,10,0.00
2014-9-12,79.1,66.4,52.0,56.5,51.4,43.3,79,60,43,30.02,29.78,6,2,10,0.00
2014-9-13,77.7,65.3,49.5,51.6,47.8,41.1,73,55,39,30.13,29.93,4,2,10,0.00
2014-9-14,83.7,68.9,54.0,55.4,52.5,48.6,82,58,36,30.00,29.79,6,2,10,0.00
2014-9-15,89.0,71.8,57.0,59.8,55.0,47.0,82,58,27,29.96,29.77,10,2,11,0.02
2014-9-16,78.1,67.7,61.4,59.1,57.4,54.3,85,71,48,29.95,29.82,5,2,10,0.00
2014-9-17,70.7,63.8,59.7,62.7,57.5,53.8,91,81,57,29.89,29.77,2,0,3,0.11
2014-9-18,85.2,68.7,55.4,59.7,53.0,47.9,84,62,28,29.83,29.63,5,2,9,0.00
2014-9-19,87.9,72.0,59.4,58.9,56.6,53.1,88,62,32,29.76,29.63,4,1,6,0.00
2014-9-20,91.5,73.8,57.9,61.0,55.3,43.3,91,58,22,29.83,29.68,7,2,14,0.00
2014-9-21,82.7,72.7,65.1,58.7,56.1,52.8,75,57,37,29.92,29.79,7,4,13,0.00
2014-9-22,81.6,69.2,62.0,61.9,58.1,54.8,92,69,45,29.97,29.81,5,2,9,0.02
2014-9-23,83.6,68.9,56.0,60.1,56.7,51.8,96,69,36,29.97,29.79,5,1,7,0.00
2014-9-24,90.4,72.2,55.5,60.0,52.0,43.9,91,55,23,29.96,29.80,6,1,7,0.00
2014-9-25,87.8,70.6,58.4,57.8,53.2,48.4,88,58,28,29.93,29.75,7,2,10,0.07
2014-9-26,80.2,66.9,54.3,58.4,54.9,51.8,93,68,41,29.91,29.73,5,2,8,0.01
2014-9-27,79.6,67.8,56.5,53.8,51.2,45.7,82,58,33,29.84,29.63,6,3,13,0.00
2014-9-28,80.1,67.7,57.6,55.3,51.4,48.1,78,58,36,29.82,29.68,8,3,19,0.00
2014-9-29,78.9,65.4,54.4,56.4,47.4,30.9,87,56,25,29.78,29.59,9,3,19,0.01
2014-9-30,77.2,60.1,44.4,38.8,35.7,33.0,67,43,22,29.82,29.66,5,2,10,0.00
2014-10-1,78.7,61.9,44.4,39.8,35.3,29.8,69,41,19,29.78,29.62,5,2,11,0.00
2014-10-2,72.3,60.0,46.5,38.3,24.1,8.9,55,29,11,30.05,29.76,9,4,14,0.00
2014-10-3,80.3,62.5,45.8,28.2,24.9,19.6,41,25,14,30.19,30.01,8,2,10,0.00
2014-10-4,80.9,63.5,46.6,33.9,28.6,25.1,47,29,15,30.07,29.82,7,2,11,0.00
2014-10-5,79.8,63.9,47.8,33.8,29.3,25.1,45,29,14,29.90,29.75,7,3,13,0.00
2014-10-6,83.3,67.5,48.6,35.8,28.9,19.6,49,26,11,29.91,29.73,7,3,11,0.00
2014-10-7,86.3,66.5,49.9,32.4,27.9,24.2,41,25,14,29.91,29.75,4,1,5,0.00
2014-10-8,71.2,63.2,55.7,48.3,35.2,25.3,59,36,24,29.84,29.74,5,1,9,0.00
2014-10-9,68.8,58.7,51.8,56.5,52.1,48.9,93,79,58,29.82,29.71,6,1,9,0.13
2014-10-10,65.8,57.2,53.0,53.1,50.4,47.6,91,79,56,30.02,29.82,4,1,6,0.21
2014-10-11,72.6,58.7,49.2,52.6,49.9,43.4,94,74,41,30.05,29.84,8,1,14,0.05
2014-10-12,72.7,57.0,44.2,48.9,36.0,14.1,94,53,14,29.87,29.54,15,6,20,0.00
2014-10-13,67.2,53.9,40.6,30.2,26.2,18.9,61,37,19,30.12,29.88,6,2,9,0.00
2014-10-14,71.8,54.7,37.2,30.5,26.9,23.4,59,36,20,30.20,30.03,5,1,7,0.00
2014-10-15,74.1,59.1,42.3,34.2,30.6,25.3,56,36,21,30.13,29.92,5,2,8,0.00
2014-10-16,81.4,61.5,43.8,39.9,34.6,30.0,62,39,21,30.00,29.80,3,1,6,0.00
2014-10-17,80.8,62.7,47.0,41.1,33.7,27.8,52,36,17,29.91,29.80,3,1,6,0.00
2014-10-18,74.1,62.3,52.2,46.4,42.0,38.1,73,49,31,29.93,29.79,4,2,9,0.00
2014-10-19,69.2,57.7,50.2,48.4,45.7,41.5,84,66,43,29.96,29.88,7,2,8,0.00
2014-10-20,74.3,56.5,44.7,52.1,44.9,39.3,87,68,34,30.03,29.90,7,2,12,0.10
2014-10-21,70.0,57.1,48.2,51.1,47.3,44.8,89,72,42,29.98,29.82,3,1,8,0.00
2014-10-22,74.7,60.2,46.7,52.1,46.2,41.0,91,64,30,30.00,29.89,4,1,7,0.00
2014-10-23,76.9,60.7,46.3,47.8,40.3,32.6,82,51,24,30.08,29.95,5,1,8,0.00
2014-10-24,83.6,61.9,43.0,39.2,33.9,26.9,65,38,17,30.13,29.96,4,1,6,0.00
2014-10-25,79.4,61.7,43.6,38.9,33.6,26.8,60,37,21,30.11,29.90,4,1,7,0.00
2014-10-26,79.1,64.1,47.9,48.2,39.7,35.1,65,43,22,29.95,29.67,11,2,19,0.00
2014-10-27,75.7,63.1,52.3,42.8,36.3,24.0,58,39,19,29.84,29.63,5,2,7,0.00
2014-10-28,70.3,55.0,43.8,32.8,28.8,21.7,64,38,24,30.07,29.85,5,1,5,0.00
2014-10-29,77.4,56.7,39.2,27.5,19.9,14.2,44,26,11,30.18,30.01,5,1,6,0.00
2014-10-30,74.9,58.2,40.0,26.0,19.4,14.6,38,23,13,30.18,30.06,4,1,6,0.00
2014-10-31,69.1,57.2,44.0,38.4,31.3,23.7,49,38,28,30.20,30.00,6,2,10,0.00
2014-11-1,68.0,57.0,44.9,44.0,39.8,34.6,68,53,41,30.05,29.78,6,2,11,0.00
2014-11-2,59.7,52.5,46.0,49.7,45.9,42.0,95,79,55,29.85,29.73,9,2,9,0.33
2014-11-3,59.6,47.5,37.3,41.9,32.1,26.7,86,58,29,30.05,29.84,3,1,6,0.00
2014-11-4,58.1,45.8,35.3,33.5,30.3,28.2,77,56,35,30.26,30.04,5,1,7,0.00
2014-11-5,67.7,47.5,32.4,31.4,26.0,19.2,82,48,16,30.37,30.20,4,1,6,0.00
2014-11-6,67.2,49.4,35.7,28.7,22.2,17.0,59,36,17,30.46,30.28,3,1,4,0.00
2014-11-7,72.6,51.9,33.3,30.0,24.0,18.9,74,38,14,30.30,30.01,7,2,9,0.00
2014-11-8,69.3,53.0,40.7,31.7,28.5,23.3,62,40,23,30.28,30.12,4,1,5,0.00
2014-11-9,65.3,48.5,33.6,35.1,31.2,26.9,77,54,30,30.16,29.81,4,1,9,0.00
2014-11-10,72.6,53.8,34.6,35.9,28.6,25.0,80,44,17,29.81,29.56,10,3,13,0.00
2014-11-11,70.8,51.3,34.8,30.0,25.8,20.3,64,39,17,29.89,29.71,7,2,11,0.00
2014-11-12,50.7,34.7,21.0,23.9,17.0,11.1,66,49,32,30.30,29.89,5,3,10,0.00
2014-11-13,43.2,30.9,17.7,24.8,16.8,8.4,67,56,43,30.43,30.23,4,2,9,0.00
2014-11-14,55.5,42.4,27.9,35.0,27.2,20.7,75,56,40,30.23,29.91,5,2,8,0.00
2014-11-15,63.0,50.5,36.5,35.8,27.5,17.0,83,46,17,29.96,29.72,9,3,17,0.00
2014-11-16,50.0,36.5,22.0,34.4,21.1,9.7,80,55,33,30.31,29.67,11,4,16,0.01
2014-11-17,46.4,31.5,16.7,12.9,8.1,5.0,62,40,20,30.49,30.31,4,1,6,0.00
2014-11-18,52.1,34.4,19.2,15.7,11.5,7.8,63,41,19,30.49,30.34,5,2,9,0.00
2014-11-19,52.8,36.4,19.7,15.6,10.5,5.7,63,37,17,30.41,30.19,4,1,5,0.00
2014-11-20,58.1,41.9,22.7,14.7,10.2,7.2,54,29,14,30.21,30.03,5,2,8,0.00
2014-11-21,53.5,40.0,25.6,21.0,16.4,10.3,57,39,26,30.10,29.98,3,1,5,0.00
2014-11-22,60.8,43.4,28.8,24.8,18.9,14.9,62,40,20,30.13,29.78,5,1,9,0.00
2014-11-23,46.9,40.3,30.9,28.1,17.0,6.4,62,40,21,30.09,29.73,15,7,21,0.00
2014-11-24,45.0,33.4,20.7,19.7,10.8,4.8,61,41,22,30.46,30.07,10,4,15,0.00
2014-11-25,52.3,34.9,16.5,13.5,8.4,3.2,67,37,14,30.56,30.34,6,2,8,0.00
2014-11-26,62.0,45.9,31.4,27.1,17.8,8.0,47,33,24,30.43,30.29,7,2,11,0.00
2014-11-27,61.1,44.7,32.9,26.8,22.4,17.6,61,43,25,30.44,30.25,6,1,8,0.00
2014-11-28,62.2,44.2,27.3,24.2,19.8,16.6,64,40,20,30.28,30.04,3,1,7,0.00
2014-11-29,64.7,46.2,30.8,23.2,17.5,10.5,59,35,17,30.06,29.87,4,1,7,0.00
2014-11-30,62.8,45.9,33.1,20.8,16.2,11.9,44,31,18,30.12,29.95,4,1,5,0.00
2014-12-1,60.8,42.8,29.2,22.7,17.4,11.1,49,37,23,30.32,30.13,4,1,6,0.00
2014-12-2,53.2,41.5,29.4,21.7,19.1,15.8,58,41,29,30.26,30.07,2,0,3,0.00
2014-12-3,61.8,47.5,35.5,47.0,30.1,17.7,91,54,26,30.19,30.03,3,1,5,0.05
2014-12-4,47.1,43.8,38.3,45.3,41.7,36.0,96,92,85,30.06,29.85,6,1,7,0.46
2014-12-5,56.2,45.5,38.0,43.0,38.6,35.1,94,78,52,30.32,30.06,4,1,7,0.00
2014-12-6,57.4,47.1,38.5,42.2,38.3,34.7,88,73,50,30.40,30.26,2,0,4,0.01
2014-12-7,59.9,47.9,35.9,45.4,38.4,34.2,96,72,41,30.33,30.18,6,2,10,0.01
2014-12-8,55.8,44.0,36.5,36.3,33.5,31.5,88,69,42,30.36,30.26,3,1,5,0.00
2014-12-9,60.5,43.7,35.8,32.9,29.9,27.3,79,60,34,30.32,30.17,3,1,4,0.00
2014-12-10,62.4,45.4,31.4,35.4,30.9,27.4,86,60,32,30.21,30.06,3,1,5,0.00
2014-12-11,61.0,45.1,33.6,32.8,30.7,26.8,82,60,33,30.20,30.08,3,1,4,0.00
2014-12-12,55.9,43.4,34.0,36.4,32.9,29.4,84,68,48,30.23,30.10,3,0,4,0.00
2014-12-13,60.4,45.8,32.9,39.4,34.3,30.9,95,67,40,30.12,29.74,9,3,14,0.15
2014-12-14,44.1,36.8,28.7,33.0,26.7,21.7,96,69,44,30.12,29.80,13,4,20,0.04
2014-12-15,47.7,35.1,22.6,24.2,21.8,17.7,84,60,35,30.31,30.12,5,2,8,0.00
2014-12-16,44.9,37.4,31.6,26.9,24.7,22.1,70,60,47,30.31,30.13,2,1,4,0.00
2014-12-17,41.8,35.8,31.1,37.6,31.9,24.8,95,86,68,30.16,29.99,3,0,7,0.28
2014-12-18,45.5,34.8,25.2,34.0,28.4,22.9,93,78,52,30.25,30.14,4,1,6,0.01
2014-12-19,44.2,35.2,26.4,27.4,25.6,22.0,85,69,47,30.31,30.21,8,4,15,0.00
2014-12-20,46.1,34.2,24.1,28.9,25.6,21.0,89,72,50,30.28,30.15,4,1,7,0.00
2014-12-21,52.6,40.4,32.0,32.0,29.1,25.9,81,65,44,30.17,29.90,4,1,6,0.00
2014-12-22,60.3,43.4,31.3,39.6,31.6,25.0,87,65,34,29.91,29.65,13,4,16,0.03
2014-12-23,41.9,34.6,26.8,29.9,16.6,9.4,89,50,28,30.25,29.81,8,4,15,0.00
2014-12-24,44.0,30.4,18.4,14.7,12.1,9.9,70,48,27,30.32,29.96,5,1,7,0.00
2014-12-25,52.6,37.6,26.6,30.9,18.1,10.1,84,47,25,29.96,29.63,12,2,19,0.00
2014-12-26,36.7,29.8,21.3,30.1,18.1,6.5,95,65,32,30.18,29.73,9,3,16,0.00
2014-12-27,38.9,25.8,15.1,17.2,11.8,7.3,85,58,31,30.48,30.18,5,2,7,0.00
2014-12-28,43.2,26.3,15.8,13.5,10.3,7.7,71,53,26,30.44,30.22,5,1,6,0.00
2014-12-29,47.6,28.5,14.5,17.3,10.3,-1.0,77,50,13,30.25,30.08,6,1,8,0.00
2014-12-30,30.7,21.7,11.4,16.1,10.7,3.6,82,63,46,30.48,30.23,8,3,12,0.00
2014-12-31,28.5,19.1,12.8,15.3,9.3,4.2,82,66,50,30.54,30.28,4,1,6,0.00
2015-1-1,34.7,23.3,16.4,23.5,17.3,12.2,89,78,58,30.28,30.14,3,1,5,0.00
2015-1-2,42.6,28.9,16.2,25.6,17.5,11.8,88,63,48,30.28,30.00,6,3,11,0.00